createdAt,value
2023-01-21T00:00:50.870Z,-4.84
2023-01-21T00:03:38.022Z,-4.88
2023-01-21T00:06:24.225Z,-4.89
2023-01-21T00:09:10.632Z,-4.88
2023-01-21T00:11:56.370Z,-4.89
2023-01-21T00:14:42.248Z,-4.91
2023-01-21T00:17:28.031Z,-4.92
2023-01-21T00:20:15.551Z,-4.93
2023-01-21T00:23:01.852Z,-4.95
2023-01-21T00:25:47.654Z,-4.95
2023-01-21T00:28:34.273Z,-5.00
2023-01-21T00:31:20.430Z,-4.98
2023-01-21T00:34:06.654Z,-4.97
2023-01-21T00:36:55.769Z,-4.98
2023-01-21T00:39:43.003Z,-5.01
2023-01-21T00:42:28.976Z,-5.01
2023-01-21T00:45:14.809Z,-5.02
2023-01-21T00:48:00.763Z,-5.05
2023-01-21T00:50:46.700Z,-5.08
2023-01-21T00:53:34.120Z,-5.11
2023-01-21T00:56:20.187Z,-5.11
2023-01-21T00:59:06.267Z,-5.12
2023-01-21T01:01:52.386Z,-5.12
2023-01-21T01:04:38.616Z,-5.13
2023-01-21T01:07:24.419Z,-5.14
2023-01-21T01:10:12.018Z,-5.17
2023-01-21T01:12:57.856Z,-5.19
2023-01-21T01:15:43.561Z,-5.19
2023-01-21T01:18:29.874Z,-5.20
2023-01-21T01:21:17.128Z,-5.19
2023-01-21T01:24:03.206Z,-5.07
2023-01-21T01:26:50.653Z,-5.05
2023-01-21T01:29:36.446Z,-5.02
2023-01-21T01:32:22.013Z,-5.01
2023-01-21T01:35:07.953Z,-5.02
2023-01-21T01:37:54.168Z,-4.97
2023-01-21T01:40:40.530Z,-4.93
2023-01-21T01:43:28.615Z,-4.87
2023-01-21T01:46:14.336Z,-4.79
2023-01-21T01:49:01.528Z,-4.71
2023-01-21T01:51:47.981Z,-4.61
2023-01-21T01:54:34.291Z,-4.54
2023-01-21T01:57:21.105Z,-4.44
2023-01-21T02:00:10.091Z,-4.37
2023-01-21T02:03:16.761Z,-4.26
2023-01-21T02:06:03.179Z,-4.16
2023-01-21T02:08:49.151Z,-4.05
2023-01-21T02:11:34.925Z,-3.97
2023-01-21T02:14:20.767Z,-3.88
2023-01-21T02:17:14.387Z,-3.81
2023-01-21T02:20:18.965Z,-3.71
2023-01-21T02:23:06.348Z,-3.63
2023-01-21T02:25:56.593Z,-3.58
2023-01-21T02:28:57.019Z,-3.51
2023-01-21T02:32:00.955Z,-3.41
2023-01-21T02:34:49.152Z,-3.33
2023-01-21T02:37:36.862Z,-3.29
2023-01-21T02:40:25.595Z,-3.21
2023-01-21T02:43:12.757Z,-3.15
2023-01-21T02:46:00.410Z,-3.08
2023-01-21T02:48:46.635Z,-3.03
2023-01-21T02:51:33.643Z,-2.97
2023-01-21T02:54:34.362Z,-2.89
2023-01-21T02:57:21.488Z,-2.83
2023-01-21T03:00:08.155Z,-2.78
2023-01-21T03:03:06.095Z,-2.72
2023-01-21T03:06:05.327Z,-2.70
2023-01-21T03:08:53.883Z,-2.64
2023-01-21T03:11:39.745Z,-2.60
2023-01-21T03:14:44.524Z,-2.55
2023-01-21T03:17:33.320Z,-2.50
2023-01-21T03:20:20.431Z,-2.46
2023-01-21T03:23:06.987Z,-2.43
2023-01-21T03:25:53.973Z,-2.39
2023-01-21T03:28:40.398Z,-2.35
2023-01-21T03:31:26.909Z,-2.31
2023-01-21T03:34:12.715Z,-2.28
2023-01-21T03:36:58.633Z,-2.25
2023-01-21T03:39:45.762Z,-2.22
2023-01-21T03:42:33.098Z,-2.18
2023-01-21T03:45:19.632Z,-2.15
2023-01-21T03:48:07.162Z,-2.11
2023-01-21T03:50:54.253Z,-2.07
2023-01-21T03:53:40.295Z,-2.04
2023-01-21T03:56:25.987Z,-2.03
2023-01-21T03:59:13.054Z,-2.00
2023-01-21T04:01:58.858Z,-1.98
2023-01-21T04:04:44.562Z,-1.93
2023-01-21T04:07:30.372Z,-1.92
2023-01-21T04:10:16.788Z,-1.88
2023-01-21T04:13:02.538Z,-1.87
2023-01-21T04:15:49.604Z,-1.84
2023-01-21T04:18:35.693Z,-1.83
2023-01-21T04:21:21.874Z,-1.79
2023-01-21T04:24:08.270Z,-1.79
2023-01-21T04:26:54.261Z,-1.75
2023-01-21T04:29:40.601Z,-1.73
2023-01-21T04:32:27.696Z,-1.73
2023-01-21T04:35:13.487Z,-1.70
2023-01-21T04:37:59.653Z,-1.69
2023-01-21T04:40:45.465Z,-1.66
2023-01-21T04:43:31.191Z,-1.66
2023-01-21T04:46:16.942Z,-1.64
2023-01-21T04:49:04.263Z,-1.64
2023-01-21T04:51:49.978Z,-1.62
2023-01-21T04:54:35.819Z,-1.60
2023-01-21T04:57:21.720Z,-1.59
2023-01-21T05:00:08.510Z,-1.56
2023-01-21T05:02:54.587Z,-1.55
2023-01-21T05:05:41.581Z,-1.53
2023-01-21T05:08:27.914Z,-1.53
2023-01-21T05:11:13.853Z,-1.49
2023-01-21T05:13:59.540Z,-1.48
2023-01-21T05:16:46.023Z,-1.45
2023-01-21T05:19:32.344Z,-1.45
2023-01-21T05:22:19.430Z,-1.45
2023-01-21T05:25:05.805Z,-1.42
2023-01-21T05:27:52.368Z,-1.43
2023-01-21T05:30:40.387Z,-1.42
2023-01-21T05:33:29.563Z,-1.40
2023-01-21T05:36:15.605Z,-1.38
2023-01-21T05:39:02.728Z,-1.37
2023-01-21T05:41:49.036Z,-1.37
2023-01-21T05:44:34.764Z,-1.36
2023-01-21T05:47:20.435Z,-1.34
2023-01-21T05:50:06.713Z,-1.32
2023-01-21T05:52:52.490Z,-1.32
2023-01-21T05:55:39.598Z,-1.30
2023-01-21T05:58:25.708Z,-1.31
2023-01-21T06:01:11.912Z,-1.32
2023-01-21T06:03:57.662Z,-1.30
2023-01-21T06:06:43.436Z,-1.29
2023-01-21T06:09:29.135Z,-1.29
2023-01-21T06:12:16.171Z,-1.28
2023-01-21T06:15:01.988Z,-1.27
2023-01-21T06:17:47.712Z,-1.25
2023-01-21T06:20:34.193Z,-1.25
2023-01-21T06:23:20.104Z,-1.22
2023-01-21T06:26:06.039Z,-1.25
2023-01-21T06:28:53.476Z,-1.21
2023-01-21T06:31:40.141Z,-1.21
2023-01-21T06:34:26.137Z,-1.20
2023-01-21T06:37:11.974Z,-1.20
2023-01-21T06:39:57.794Z,-1.22
2023-01-21T06:42:45.947Z,-1.19
2023-01-21T06:45:33.426Z,-1.17
2023-01-21T06:48:19.324Z,-1.17
2023-01-21T06:51:05.368Z,-1.17
2023-01-21T06:53:51.685Z,-1.16
2023-01-21T06:56:38.161Z,-1.15
2023-01-21T06:59:24.152Z,-1.14
2023-01-21T07:02:11.798Z,-1.14
2023-01-21T07:04:59.095Z,-1.12
2023-01-21T07:07:45.223Z,-1.14
2023-01-21T07:10:31.031Z,-1.13
2023-01-21T07:13:16.846Z,-1.15
2023-01-21T07:16:04.610Z,-1.13
2023-01-21T07:18:53.374Z,-1.15
2023-01-21T07:21:41.203Z,-1.12
2023-01-21T07:24:26.833Z,-1.11
2023-01-21T07:27:12.800Z,-1.08
2023-01-21T07:29:58.820Z,-1.09
2023-01-21T07:32:44.612Z,-1.10
2023-01-21T07:35:31.691Z,-1.09
2023-01-21T07:42:29.470Z,-1.05
2023-01-21T07:45:15.665Z,-1.06
2023-01-21T07:48:01.629Z,-1.05
2023-01-21T07:50:49.495Z,-1.00
2023-01-21T07:53:35.424Z,-1.02
2023-01-21T07:56:21.501Z,-1.00
2023-01-21T07:59:07.405Z,-0.99
2023-01-21T08:01:53.297Z,-1.00
2023-01-21T08:04:39.285Z,-0.99
2023-01-21T08:07:26.339Z,-0.98
2023-01-21T08:10:12.251Z,-0.98
2023-01-21T08:12:58.035Z,-0.93
2023-01-21T08:15:43.849Z,-0.90
2023-01-21T08:18:29.698Z,-0.92
2023-01-21T08:21:15.384Z,-0.89
2023-01-21T08:24:04.674Z,-0.85
2023-01-21T08:26:50.465Z,-0.82
2023-01-21T08:29:36.397Z,-0.86
2023-01-21T08:32:22.265Z,-0.81
2023-01-21T08:35:08.943Z,-0.78
2023-01-21T08:37:55.135Z,-0.76
2023-01-21T08:40:42.566Z,-0.72
2023-01-21T08:43:28.424Z,-0.73
2023-01-21T08:46:14.163Z,-0.67
2023-01-21T08:48:59.887Z,-0.65
2023-01-21T08:51:45.624Z,-0.62
2023-01-21T08:54:31.408Z,-0.67
2023-01-21T08:57:18.867Z,-0.71
2023-01-21T09:00:05.671Z,-0.66
2023-01-21T09:02:52.370Z,-0.66
2023-01-21T09:05:38.173Z,-0.61
2023-01-21T09:08:24.015Z,-0.58
2023-01-21T09:11:10.031Z,-0.61
2023-01-21T09:13:59.027Z,-0.61
2023-01-21T09:16:45.173Z,-0.55
2023-01-21T09:19:31.383Z,-0.54
2023-01-21T09:22:17.535Z,-0.52
2023-01-21T09:25:10.119Z,-0.51
2023-01-21T09:27:56.276Z,-0.46
2023-01-21T09:30:43.377Z,-0.40
2023-01-21T09:33:29.486Z,-0.40
2023-01-21T09:36:16.710Z,-0.37
2023-01-21T09:39:02.634Z,-0.37
2023-01-21T09:41:49.703Z,-0.29
2023-01-21T09:44:36.442Z,-0.28
2023-01-21T09:47:23.835Z,-0.24
2023-01-21T09:50:14.049Z,-0.21
2023-01-21T09:53:01.098Z,-0.16
2023-01-21T09:55:48.028Z,-0.11
2023-01-21T09:58:35.364Z,-0.08
2023-01-21T10:01:22.003Z,-0.06
2023-01-21T10:04:15.687Z,-0.01
2023-01-21T10:07:03.626Z,0.03
2023-01-21T10:09:51.958Z,0.08
2023-01-21T10:12:44.407Z,0.13
2023-01-21T10:15:32.440Z,0.17
2023-01-21T10:18:19.439Z,0.20
2023-01-21T10:21:07.680Z,0.24
2023-01-21T10:23:57.305Z,0.27
2023-01-21T10:26:43.949Z,0.32
2023-01-21T10:29:30.166Z,0.33
2023-01-21T10:32:17.021Z,0.37
2023-01-21T10:35:03.342Z,0.41
2023-01-21T10:37:51.321Z,0.44
2023-01-21T10:40:45.543Z,0.46
2023-01-21T10:43:33.576Z,0.51
2023-01-21T10:46:21.613Z,0.49
2023-01-21T10:49:10.524Z,0.52
2023-01-21T10:51:58.544Z,0.54
2023-01-21T10:54:48.166Z,0.55
2023-01-21T10:57:37.179Z,0.64
2023-01-21T11:00:23.879Z,0.66
2023-01-21T11:03:11.771Z,0.69
2023-01-21T11:05:58.288Z,0.74
2023-01-21T11:08:44.593Z,0.78
2023-01-21T11:11:32.556Z,0.75
2023-01-21T11:14:21.130Z,0.81
2023-01-21T11:17:07.317Z,0.81
2023-01-21T11:19:58.475Z,0.83
2023-01-21T11:22:45.591Z,0.85
2023-01-21T11:25:34.975Z,0.89
2023-01-21T11:28:26.253Z,0.87
2023-01-21T11:31:13.509Z,0.94
2023-01-21T11:34:04.341Z,0.96
2023-01-21T11:36:57.010Z,0.93
2023-01-21T11:39:47.868Z,0.98
2023-01-21T11:42:33.693Z,0.96
2023-01-21T11:45:28.603Z,0.96
2023-01-21T11:48:15.569Z,0.94
2023-01-21T11:51:11.370Z,0.94
2023-01-21T11:54:07.535Z,0.94
2023-01-21T11:56:54.377Z,0.92
2023-01-21T11:59:41.599Z,0.92
2023-01-21T12:02:30.172Z,0.91
2023-01-21T12:05:17.260Z,0.87
2023-01-21T12:08:03.430Z,0.88
2023-01-21T12:10:49.483Z,0.92
2023-01-21T12:13:36.389Z,0.96
2023-01-21T12:16:31.875Z,0.96
2023-01-21T12:19:31.507Z,1.03
2023-01-21T12:22:21.084Z,1.03
2023-01-21T12:25:10.541Z,1.13
2023-01-21T12:28:00.534Z,1.17
2023-01-21T12:30:49.040Z,1.18
2023-01-21T12:33:41.863Z,1.26
2023-01-21T12:36:30.713Z,1.30
2023-01-21T12:39:18.018Z,1.39
2023-01-21T12:42:07.002Z,1.44
2023-01-21T12:44:53.274Z,1.41
2023-01-21T12:47:40.542Z,1.49
2023-01-21T12:50:27.888Z,1.54
2023-01-21T12:53:17.092Z,1.55
2023-01-21T12:56:09.271Z,1.53
2023-01-21T12:58:55.748Z,1.54
2023-01-21T13:01:44.196Z,1.59
2023-01-21T13:04:40.340Z,1.58
2023-01-21T13:07:29.200Z,1.62
2023-01-21T13:10:18.460Z,1.63
2023-01-21T13:13:05.781Z,1.68
2023-01-21T13:15:54.131Z,1.69
2023-01-21T13:18:41.901Z,1.74
2023-01-21T13:21:30.945Z,1.79
2023-01-21T13:24:17.113Z,1.85
2023-01-21T13:27:06.787Z,1.81
2023-01-21T13:29:54.182Z,1.87
2023-01-21T13:32:41.967Z,1.96
2023-01-21T13:35:31.722Z,1.96
2023-01-21T13:38:19.725Z,1.94
2023-01-21T13:41:09.488Z,1.96
2023-01-21T13:44:01.559Z,1.96
2023-01-21T13:46:55.055Z,1.90
2023-01-21T13:49:44.775Z,1.91
2023-01-21T13:52:33.698Z,1.97
2023-01-21T13:55:23.079Z,1.97
2023-01-21T13:58:09.559Z,1.92
2023-01-21T14:00:57.563Z,1.95
2023-01-21T14:03:45.153Z,1.97
2023-01-21T14:06:31.950Z,1.93
2023-01-21T14:09:20.993Z,1.99
2023-01-21T14:12:08.739Z,1.99
2023-01-21T14:15:15.755Z,1.98
2023-01-21T14:18:21.393Z,1.98
2023-01-21T14:21:10.417Z,2.02
2023-01-21T14:24:00.419Z,2.01
2023-01-21T14:26:49.118Z,2.00
2023-01-21T14:29:35.849Z,2.03
2023-01-21T14:32:22.863Z,1.97
2023-01-21T14:35:13.738Z,1.96
2023-01-21T14:38:04.409Z,1.93
2023-01-21T14:40:51.344Z,1.94
2023-01-21T14:43:46.756Z,1.92
2023-01-21T14:46:33.712Z,1.90
2023-01-21T14:49:20.676Z,1.82
2023-01-21T14:52:07.951Z,1.81
2023-01-21T14:54:53.669Z,1.74
2023-01-21T14:57:39.617Z,1.75
2023-01-21T15:00:26.722Z,1.70
2023-01-21T15:03:15.000Z,1.67
2023-01-21T15:06:01.493Z,1.64
2023-01-21T15:08:49.464Z,1.56
2023-01-21T15:11:35.812Z,1.54
2023-01-21T15:14:23.181Z,1.52
2023-01-21T15:17:10.904Z,1.47
2023-01-21T15:19:58.077Z,1.37
2023-01-21T15:22:46.691Z,1.40
2023-01-21T15:25:36.815Z,1.31
2023-01-21T15:28:34.885Z,1.24
2023-01-21T15:31:40.414Z,1.26
2023-01-21T15:34:26.335Z,1.24
2023-01-21T15:37:13.335Z,1.09
2023-01-21T15:40:00.534Z,1.12
2023-01-21T15:42:51.733Z,1.10
2023-01-21T15:45:40.867Z,1.06
2023-01-21T15:48:41.237Z,1.04
2023-01-21T15:51:33.942Z,1.05
2023-01-21T15:54:22.077Z,0.99
2023-01-21T15:57:12.531Z,1.01
2023-01-21T16:00:08.412Z,0.98
2023-01-21T16:02:56.402Z,0.99
2023-01-21T16:05:44.685Z,0.93
2023-01-21T16:08:37.397Z,0.95
2023-01-21T16:11:26.689Z,0.87
2023-01-21T16:14:16.488Z,0.91
2023-01-21T16:17:06.873Z,0.84
2023-01-21T16:19:53.114Z,0.87
2023-01-21T16:22:39.418Z,0.84
2023-01-21T16:25:25.442Z,0.85
2023-01-21T16:28:11.162Z,0.83
2023-01-21T16:30:57.715Z,0.81
2023-01-21T16:33:45.194Z,0.83
2023-01-21T16:36:37.503Z,0.84
2023-01-21T16:39:23.353Z,0.83
2023-01-21T16:42:22.479Z,0.76
2023-01-21T16:45:09.070Z,0.78
2023-01-21T16:47:56.832Z,0.74
2023-01-21T16:50:43.955Z,0.74
2023-01-21T16:53:30.433Z,0.78
2023-01-21T16:56:25.747Z,0.78
2023-01-21T16:59:18.623Z,0.79
2023-01-21T17:02:04.433Z,0.74
2023-01-21T17:04:50.232Z,0.76
2023-01-21T17:07:39.089Z,0.74
2023-01-21T17:10:25.742Z,0.74
2023-01-21T17:13:15.840Z,0.75
2023-01-21T17:16:01.970Z,0.75
2023-01-21T17:18:52.004Z,0.75
2023-01-21T17:21:39.024Z,0.77
2023-01-21T17:24:26.725Z,0.78
2023-01-21T17:27:14.704Z,0.77
2023-01-21T17:30:20.637Z,0.77
2023-01-21T17:33:06.464Z,0.78
2023-01-21T17:36:05.775Z,0.78
2023-01-21T17:38:53.143Z,0.80
2023-01-21T17:41:41.253Z,0.77
2023-01-21T17:44:28.891Z,0.80
2023-01-21T17:47:19.235Z,0.79
2023-01-21T17:50:06.576Z,0.78
2023-01-21T17:52:53.154Z,0.71
2023-01-21T17:55:40.053Z,0.75
2023-01-21T17:58:37.376Z,0.72
2023-01-21T18:01:23.890Z,0.69
2023-01-21T18:04:09.754Z,0.70
2023-01-21T18:06:55.907Z,0.74
2023-01-21T18:09:41.653Z,0.70
2023-01-21T18:12:27.470Z,0.74
2023-01-21T18:15:15.629Z,0.75
2023-01-21T18:18:01.959Z,0.71
2023-01-21T18:20:47.813Z,0.68
2023-01-21T18:23:33.580Z,0.69
2023-01-21T18:26:28.215Z,0.70
2023-01-21T18:29:15.035Z,0.69
2023-01-21T18:32:02.570Z,0.69
2023-01-21T18:34:48.279Z,0.65
2023-01-21T18:37:34.057Z,0.70
2023-01-21T18:40:22.289Z,0.71
2023-01-21T18:43:08.196Z,0.70
2023-01-21T18:45:54.609Z,0.70
2023-01-21T18:48:42.984Z,0.69
2023-01-21T18:51:28.810Z,0.70
2023-01-21T18:54:14.837Z,0.68
2023-01-21T18:57:00.655Z,0.69
2023-01-21T18:59:46.540Z,0.67
2023-01-21T19:02:32.343Z,0.66
2023-01-21T19:05:19.736Z,0.70
2023-01-21T19:08:06.247Z,0.73
2023-01-21T19:10:52.379Z,0.72
2023-01-21T19:13:38.265Z,0.71
2023-01-21T19:16:24.049Z,0.72
2023-01-21T19:19:11.066Z,0.74
2023-01-21T19:21:59.007Z,0.74
2023-01-21T19:24:46.756Z,0.72
2023-01-21T19:27:33.214Z,0.70
2023-01-21T19:30:20.434Z,0.72
2023-01-21T19:33:06.274Z,0.71
2023-01-21T19:35:53.215Z,0.72
2023-01-21T19:38:42.655Z,0.75
2023-01-21T19:41:29.878Z,0.73
2023-01-21T19:44:15.573Z,0.73
2023-01-21T19:47:01.614Z,0.70
2023-01-21T19:49:47.809Z,0.67
2023-01-21T19:52:34.073Z,0.66
2023-01-21T19:55:23.010Z,0.62
2023-01-21T19:58:13.005Z,0.65
2023-01-21T20:00:59.205Z,0.65
2023-01-21T20:03:59.379Z,0.57
2023-01-21T20:06:46.679Z,0.58
2023-01-21T20:09:32.560Z,0.58
2023-01-21T20:12:19.600Z,0.57
2023-01-21T20:15:05.945Z,0.54
2023-01-21T20:17:52.408Z,0.50
2023-01-21T20:20:38.569Z,0.53
2023-01-21T20:23:25.155Z,0.55
2023-01-21T20:26:12.524Z,0.49
2023-01-21T20:29:02.325Z,0.49
2023-01-21T20:31:48.736Z,0.51
2023-01-21T20:34:37.232Z,0.54
2023-01-21T20:37:23.224Z,0.54
2023-01-21T20:40:10.690Z,0.53
2023-01-21T20:42:56.889Z,0.59
2023-01-21T20:45:44.682Z,0.60
2023-01-21T20:48:32.786Z,0.57
2023-01-21T20:51:18.841Z,0.60
2023-01-21T20:54:05.209Z,0.60
2023-01-21T20:56:51.378Z,0.59
2023-01-21T20:59:37.567Z,0.63
2023-01-21T21:02:24.588Z,0.62
2023-01-21T21:05:10.819Z,0.58
2023-01-21T21:07:57.147Z,0.58
2023-01-21T21:10:43.593Z,0.62
2023-01-21T21:13:29.804Z,0.60
2023-01-21T21:16:18.061Z,0.64
2023-01-21T21:19:05.214Z,0.66
2023-01-21T21:21:51.119Z,0.60
2023-01-21T21:24:37.004Z,0.64
2023-01-21T21:27:22.699Z,0.63
2023-01-21T21:30:11.169Z,0.62
2023-01-21T21:32:57.757Z,0.62
2023-01-21T21:35:46.876Z,0.60
2023-01-21T21:38:32.677Z,0.64
2023-01-21T21:41:36.674Z,0.64
2023-01-21T21:44:22.901Z,0.62
2023-01-21T21:47:27.290Z,0.62
2023-01-21T21:50:13.274Z,0.61
2023-01-21T21:53:00.483Z,0.64
2023-01-21T21:55:46.338Z,0.62
2023-01-21T21:58:32.409Z,0.58
2023-01-21T22:01:18.768Z,0.60
2023-01-21T22:04:04.816Z,0.63
2023-01-21T22:06:50.904Z,0.62
2023-01-21T22:09:38.115Z,0.64
2023-01-21T22:12:23.841Z,0.64
2023-01-21T22:15:10.153Z,0.58
2023-01-21T22:17:56.325Z,0.62
2023-01-21T22:20:42.132Z,0.59
2023-01-21T22:23:28.183Z,0.59
2023-01-21T22:26:16.168Z,0.63
2023-01-21T22:29:02.541Z,0.66
2023-01-21T22:31:48.560Z,0.65
2023-01-21T22:34:34.703Z,0.65
2023-01-21T22:37:20.570Z,0.65
2023-01-21T22:40:07.096Z,0.65
2023-01-21T22:42:54.349Z,0.62
2023-01-21T22:45:41.169Z,0.62
2023-01-21T22:48:27.235Z,0.63
2023-01-21T22:51:13.839Z,0.61
2023-01-21T22:54:02.039Z,0.59
2023-01-21T22:56:52.938Z,0.58
2023-01-21T22:59:40.584Z,0.56
2023-01-21T23:02:26.306Z,0.57
2023-01-21T23:05:12.189Z,0.57
2023-01-21T23:10:48.940Z,0.57
2023-01-21T23:13:34.922Z,0.56
2023-01-21T23:16:22.369Z,0.51
2023-01-21T23:19:08.456Z,0.51
2023-01-21T23:21:54.168Z,0.50
2023-01-21T23:24:39.925Z,0.50
2023-01-21T23:27:25.665Z,0.44
2023-01-21T23:30:11.985Z,0.45
2023-01-21T23:32:59.861Z,0.46
2023-01-21T23:35:45.842Z,0.40
2023-01-21T23:38:31.729Z,0.28
2023-01-21T23:41:19.692Z,0.34
2023-01-21T23:44:06.365Z,0.35
2023-01-21T23:46:52.107Z,0.28
2023-01-21T23:49:39.283Z,0.30
2023-01-21T23:52:25.140Z,0.27
2023-01-21T23:55:11.073Z,0.28
2023-01-21T23:57:57.333Z,0.25
